LEJT weather

Hospital Doctor Josep Trueta Heliport
Gerona, Catalonia, Spain

Public forecast

Using degrees Celsius for public forecast. Weather courtesy of forecast.io.

METAR (pilot weather report)

Closest report is Girona Airport, 6.4 nm (11.9 km) SSW. Retrieved 2019/09/19 15:30 UTC (21 minutes ago):

LEGE 191530Z 20012KT 9999 VCTS FEW059CB 25/14 Q1017

TAF (pilot weather forecast)

Closest forecast is Girona Airport, 6.4 nm (11.9 km) SSW. Retrieved 2019/09/19 12:27 UTC (3 hours ago):

TAF LEGE 191100Z 1912/2012 VRB03KT 9999 FEW040 TX30/1913Z TN16/2005Z TEMPO 1912/1918 20009KT PROB40 TEMPO 1914/1920 32015KT 4000 TSRA FEW030CB